sensor_id;sensor_type;location;lat;lon;timestamp;temperature;humidity
6536;DHT22;34330;52.08032700;5.40923460;2024-02-21T00:00:32;12.90;98.10
6536;DHT22;34330;52.08032700;5.40923460;2024-02-21T00:03:00;12.90;98.20
6536;DHT22;34330;52.08032700;5.40923460;2024-02-21T00:05:29;12.90;98.10
6536;DHT22;34330;52.08032700;5.40923460;2024-02-21T00:07:59;12.90;98.10
6536;DHT22;34330;52.08032700;5.40923460;2024-02-21T00:10:27;12.90;98.10
6536;DHT22;34330;52.08032700;5.40923460;2024-02-21T00:12:55;12.90;98.00
6536;DHT22;34330;52.08032700;5.40923460;2024-02-21T00:15:23;12.90;98.10
6536;DHT22;34330;52.08032700;5.40923460;2024-02-21T00:17:52;12.90;98.00
6536;DHT22;34330;52.08032700;5.40923460;2024-02-21T00:20:20;12.90;98.00
6536;DHT22;34330;52.08032700;5.40923460;2024-02-21T00:22:48;12.90;98.00
6536;DHT22;34330;52.08032700;5.40923460;2024-02-21T00:25:17;12.90;98.00
6536;DHT22;34330;52.08032700;5.40923460;2024-02-21T00:27:47;12.90;98.00
6536;DHT22;34330;52.08032700;5.40923460;2024-02-21T00:30:15;12.80;98.00
6536;DHT22;34330;52.08032700;5.40923460;2024-02-21T00:32:44;12.90;98.00
6536;DHT22;34330;52.08032700;5.40923460;2024-02-21T00:35:13;12.90;98.30
6536;DHT22;34330;52.08032700;5.40923460;2024-02-21T00:37:41;12.80;98.00
6536;DHT22;34330;52.08032700;5.40923460;2024-02-21T00:40:10;12.80;98.00
6536;DHT22;34330;52.08032700;5.40923460;2024-02-21T00:42:38;12.80;98.10
6536;DHT22;34330;52.08032700;5.40923460;2024-02-21T00:45:07;12.80;98.00
6536;DHT22;34330;52.08032700;5.40923460;2024-02-21T00:47:35;12.80;98.10
6536;DHT22;34330;52.08032700;5.40923460;2024-02-21T00:50:04;12.80;98.00
6536;DHT22;34330;52.08032700;5.40923460;2024-02-21T00:52:37;12.80;98.10
6536;DHT22;34330;52.08032700;5.40923460;2024-02-21T00:55:06;12.80;98.10
6536;DHT22;34330;52.08032700;5.40923460;2024-02-21T00:57:34;12.80;98.10
6536;DHT22;34330;52.08032700;5.40923460;2024-02-21T01:00:03;12.80;98.10
6536;DHT22;34330;52.08032700;5.40923460;2024-02-21T01:02:31;12.80;98.20
6536;DHT22;34330;52.08032700;5.40923460;2024-02-21T01:04:59;13.00;98.20
6536;DHT22;34330;52.08032700;5.40923460;2024-02-21T01:07:28;12.90;98.10
6536;DHT22;34330;52.08032700;5.40923460;2024-02-21T01:10:00;12.90;98.10
6536;DHT22;34330;52.08032700;5.40923460;2024-02-21T01:12:28;12.80;98.10
6536;DHT22;34330;52.08032700;5.40923460;2024-02-21T01:14:56;12.80;98.10
6536;DHT22;34330;52.08032700;5.40923460;2024-02-21T01:17:24;12.80;98.10
6536;DHT22;34330;52.08032700;5.40923460;2024-02-21T01:19:52;12.80;98.20
6536;DHT22;34330;52.08032700;5.40923460;2024-02-21T01:22:20;12.80;98.20
6536;DHT22;34330;52.08032700;5.40923460;2024-02-21T01:24:48;12.80;98.10
6536;DHT22;34330;52.08032700;5.40923460;2024-02-21T01:27:17;12.80;98.10
6536;DHT22;34330;52.08032700;5.40923460;2024-02-21T01:29:45;12.80;98.20
6536;DHT22;34330;52.08032700;5.40923460;2024-02-21T01:32:16;12.80;98.20
6536;DHT22;34330;52.08032700;5.40923460;2024-02-21T01:34:44;12.80;98.10
6536;DHT22;34330;52.08032700;5.40923460;2024-02-21T01:37:12;12.80;98.20
6536;DHT22;34330;52.08032700;5.40923460;2024-02-21T01:39:40;12.80;98.20
6536;DHT22;34330;52.08032700;5.40923460;2024-02-21T01:42:08;12.80;98.20
6536;DHT22;34330;52.08032700;5.40923460;2024-02-21T01:44:37;12.80;98.20
6536;DHT22;34330;52.08032700;5.40923460;2024-02-21T01:47:06;12.80;98.20
6536;DHT22;34330;52.08032700;5.40923460;2024-02-21T01:49:34;12.80;98.20
6536;DHT22;34330;52.08032700;5.40923460;2024-02-21T01:52:03;12.80;98.20
6536;DHT22;34330;52.08032700;5.40923460;2024-02-21T01:54:31;12.80;98.20
6536;DHT22;34330;52.08032700;5.40923460;2024-02-21T01:57:00;12.80;98.20
6536;DHT22;34330;52.08032700;5.40923460;2024-02-21T01:59:28;12.80;98.20
6536;DHT22;34330;52.08032700;5.40923460;2024-02-21T02:01:58;12.80;98.00
6536;DHT22;34330;52.08032700;5.40923460;2024-02-21T02:04:27;12.80;98.20
6536;DHT22;34330;52.08032700;5.40923460;2024-02-21T02:06:58;12.80;98.20
6536;DHT22;34330;52.08032700;5.40923460;2024-02-21T02:09:27;12.80;98.20
6536;DHT22;34330;52.08032700;5.40923460;2024-02-21T02:11:55;12.80;98.10
6536;DHT22;34330;52.08032700;5.40923460;2024-02-21T02:14:25;12.80;98.20
6536;DHT22;34330;52.08032700;5.40923460;2024-02-21T02:16:53;12.80;98.20
6536;DHT22;34330;52.08032700;5.40923460;2024-02-21T02:19:22;12.90;98.30
6536;DHT22;34330;52.08032700;5.40923460;2024-02-21T02:21:53;12.80;98.20
6536;DHT22;34330;52.08032700;5.40923460;2024-02-21T02:24:26;12.80;98.20
6536;DHT22;34330;52.08032700;5.40923460;2024-02-21T02:26:54;12.80;98.20
6536;DHT22;34330;52.08032700;5.40923460;2024-02-21T02:29:22;12.80;98.10
6536;DHT22;34330;52.08032700;5.40923460;2024-02-21T02:31:50;12.80;98.10
6536;DHT22;34330;52.08032700;5.40923460;2024-02-21T02:34:19;12.80;98.20
6536;DHT22;34330;52.08032700;5.40923460;2024-02-21T02:36:47;12.80;98.10
6536;DHT22;34330;52.08032700;5.40923460;2024-02-21T02:39:16;12.80;98.20
6536;DHT22;34330;52.08032700;5.40923460;2024-02-21T02:41:45;12.80;98.20
6536;DHT22;34330;52.08032700;5.40923460;2024-02-21T02:44:13;12.80;98.40
6536;DHT22;34330;52.08032700;5.40923460;2024-02-21T02:46:41;14.10;98.70
6536;DHT22;34330;52.08032700;5.40923460;2024-02-21T02:49:09;12.80;98.10
6536;DHT22;34330;52.08032700;5.40923460;2024-02-21T02:51:41;12.80;98.10
6536;DHT22;34330;52.08032700;5.40923460;2024-02-21T02:54:09;12.80;98.20
6536;DHT22;34330;52.08032700;5.40923460;2024-02-21T02:56:37;12.80;98.10
6536;DHT22;34330;52.08032700;5.40923460;2024-02-21T02:59:06;12.80;98.10
6536;DHT22;34330;52.08032700;5.40923460;2024-02-21T03:01:34;12.70;98.00
6536;DHT22;34330;52.08032700;5.40923460;2024-02-21T03:04:03;12.80;98.10
6536;DHT22;34330;52.08032700;5.40923460;2024-02-21T03:06:31;12.80;98.00
6536;DHT22;34330;52.08032700;5.40923460;2024-02-21T03:09:00;12.80;98.10
6536;DHT22;34330;52.08032700;5.40923460;2024-02-21T03:11:28;12.80;98.10
6536;DHT22;34330;52.08032700;5.40923460;2024-02-21T03:13:59;12.80;98.00
6536;DHT22;34330;52.08032700;5.40923460;2024-02-21T03:16:29;14.00;98.60
6536;DHT22;34330;52.08032700;5.40923460;2024-02-21T03:18:57;12.70;98.00
6536;DHT22;34330;52.08032700;5.40923460;2024-02-21T03:21:25;12.70;98.00
6536;DHT22;34330;52.08032700;5.40923460;2024-02-21T03:23:54;12.50;98.00
6536;DHT22;34330;52.08032700;5.40923460;2024-02-21T03:26:22;12.80;98.10
6536;DHT22;34330;52.08032700;5.40923460;2024-02-21T03:28:50;12.70;98.10
6536;DHT22;34330;52.08032700;5.40923460;2024-02-21T03:31:18;12.70;98.10
6536;DHT22;34330;52.08032700;5.40923460;2024-02-21T03:33:47;12.80;98.00
6536;DHT22;34330;52.08032700;5.40923460;2024-02-21T03:36:16;12.70;98.00
6536;DHT22;34330;52.08032700;5.40923460;2024-02-21T03:38:44;12.80;98.00
6536;DHT22;34330;52.08032700;5.40923460;2024-02-21T03:41:12;12.70;98.00
6536;DHT22;34330;52.08032700;5.40923460;2024-02-21T03:43:39;12.80;98.00
6536;DHT22;34330;52.08032700;5.40923460;2024-02-21T03:46:08;12.70;98.00
6536;DHT22;34330;52.08032700;5.40923460;2024-02-21T03:48:36;12.70;98.00
6536;DHT22;34330;52.08032700;5.40923460;2024-02-21T03:51:06;12.70;98.00
6536;DHT22;34330;52.08032700;5.40923460;2024-02-21T03:53:34;12.70;98.00
6536;DHT22;34330;52.08032700;5.40923460;2024-02-21T03:56:02;12.70;98.00
6536;DHT22;34330;52.08032700;5.40923460;2024-02-21T03:58:31;12.70;98.00
6536;DHT22;34330;52.08032700;5.40923460;2024-02-21T04:01:00;12.70;98.00
6536;DHT22;34330;52.08032700;5.40923460;2024-02-21T04:03:28;12.80;98.00
6536;DHT22;34330;52.08032700;5.40923460;2024-02-21T04:06:00;12.70;98.30
6536;DHT22;34330;52.08032700;5.40923460;2024-02-21T04:08:29;11.90;97.60
6536;DHT22;34330;52.08032700;5.40923460;2024-02-21T04:10:58;12.70;97.90
6536;DHT22;34330;52.08032700;5.40923460;2024-02-21T04:13:26;14.40;99.00
6536;DHT22;34330;52.08032700;5.40923460;2024-02-21T04:15:55;12.70;97.90
6536;DHT22;34330;52.08032700;5.40923460;2024-02-21T04:18:23;12.70;97.90
6536;DHT22;34330;52.08032700;5.40923460;2024-02-21T04:20:51;12.70;97.90
6536;DHT22;34330;52.08032700;5.40923460;2024-02-21T04:23:19;12.60;97.90
6536;DHT22;34330;52.08032700;5.40923460;2024-02-21T04:25:49;12.70;98.00
6536;DHT22;34330;52.08032700;5.40923460;2024-02-21T04:28:17;12.70;97.90
6536;DHT22;34330;52.08032700;5.40923460;2024-02-21T04:30:45;12.60;97.90
6536;DHT22;34330;52.08032700;5.40923460;2024-02-21T04:33:13;12.70;98.00
6536;DHT22;34330;52.08032700;5.40923460;2024-02-21T04:35:41;12.60;97.90
6536;DHT22;34330;52.08032700;5.40923460;2024-02-21T04:38:09;12.60;97.90
6536;DHT22;34330;52.08032700;5.40923460;2024-02-21T04:40:37;12.60;97.90
6536;DHT22;34330;52.08032700;5.40923460;2024-02-21T04:43:06;12.90;98.00
6536;DHT22;34330;52.08032700;5.40923460;2024-02-21T04:45:34;12.60;97.80
6536;DHT22;34330;52.08032700;5.40923460;2024-02-21T04:48:03;12.60;98.00
6536;DHT22;34330;52.08032700;5.40923460;2024-02-21T04:50:31;12.60;97.90
6536;DHT22;34330;52.08032700;5.40923460;2024-02-21T04:52:59;12.60;97.90
6536;DHT22;34330;52.08032700;5.40923460;2024-02-21T04:55:28;12.60;97.90
6536;DHT22;34330;52.08032700;5.40923460;2024-02-21T04:57:56;12.60;97.90
6536;DHT22;34330;52.08032700;5.40923460;2024-02-21T05:00:30;12.60;98.00
6536;DHT22;34330;52.08032700;5.40923460;2024-02-21T05:02:58;12.70;98.00
6536;DHT22;34330;52.08032700;5.40923460;2024-02-21T05:05:26;12.70;98.00
6536;DHT22;34330;52.08032700;5.40923460;2024-02-21T05:07:54;12.70;98.00
6536;DHT22;34330;52.08032700;5.40923460;2024-02-21T05:10:23;12.70;97.80
6536;DHT22;34330;52.08032700;5.40923460;2024-02-21T05:12:51;12.70;97.90
6536;DHT22;34330;52.08032700;5.40923460;2024-02-21T05:15:19;12.70;97.90
6536;DHT22;34330;52.08032700;5.40923460;2024-02-21T05:17:48;12.70;97.80
6536;DHT22;34330;52.08032700;5.40923460;2024-02-21T05:20:16;12.70;97.80
6536;DHT22;34330;52.08032700;5.40923460;2024-02-21T05:22:44;12.70;97.80
6536;DHT22;34330;52.08032700;5.40923460;2024-02-21T05:25:12;12.70;97.80
6536;DHT22;34330;52.08032700;5.40923460;2024-02-21T05:27:40;12.70;97.80
6536;DHT22;34330;52.08032700;5.40923460;2024-02-21T05:30:09;12.70;97.80
6536;DHT22;34330;52.08032700;5.40923460;2024-02-21T05:32:37;12.70;97.90
6536;DHT22;34330;52.08032700;5.40923460;2024-02-21T05:35:07;12.70;97.80
6536;DHT22;34330;52.08032700;5.40923460;2024-02-21T05:37:35;12.70;97.80
6536;DHT22;34330;52.08032700;5.40923460;2024-02-21T05:40:04;12.70;97.80
6536;DHT22;34330;52.08032700;5.40923460;2024-02-21T05:42:32;12.70;97.90
6536;DHT22;34330;52.08032700;5.40923460;2024-02-21T05:45:00;12.70;97.80
6536;DHT22;34330;52.08032700;5.40923460;2024-02-21T05:47:28;12.70;97.80
6536;DHT22;34330;52.08032700;5.40923460;2024-02-21T05:49:56;14.10;98.40
6536;DHT22;34330;52.08032700;5.40923460;2024-02-21T05:52:25;12.70;97.80
6536;DHT22;34330;52.08032700;5.40923460;2024-02-21T05:54:54;12.70;97.80
6536;DHT22;34330;52.08032700;5.40923460;2024-02-21T05:57:22;12.70;97.80
6536;DHT22;34330;52.08032700;5.40923460;2024-02-21T05:59:50;12.70;97.80
6536;DHT22;34330;52.08032700;5.40923460;2024-02-21T06:02:18;12.70;97.90
6536;DHT22;34330;52.08032700;5.40923460;2024-02-21T06:04:46;12.70;97.80
6536;DHT22;34330;52.08032700;5.40923460;2024-02-21T06:07:14;12.70;97.80
6536;DHT22;34330;52.08032700;5.40923460;2024-02-21T06:09:44;12.70;98.20
6536;DHT22;34330;52.08032700;5.40923460;2024-02-21T06:12:12;12.70;97.80
6536;DHT22;34330;52.08032700;5.40923460;2024-02-21T06:14:39;12.70;97.90
6536;DHT22;34330;52.08032700;5.40923460;2024-02-21T06:17:07;12.70;97.90
6536;DHT22;34330;52.08032700;5.40923460;2024-02-21T06:19:35;12.70;97.90
6536;DHT22;34330;52.08032700;5.40923460;2024-02-21T06:22:03;12.70;97.80
6536;DHT22;34330;52.08032700;5.40923460;2024-02-21T06:24:34;12.70;97.80
6536;DHT22;34330;52.08032700;5.40923460;2024-02-21T06:27:05;12.70;97.70
6536;DHT22;34330;52.08032700;5.40923460;2024-02-21T06:29:37;12.70;97.80
6536;DHT22;34330;52.08032700;5.40923460;2024-02-21T06:32:05;12.70;97.70
6536;DHT22;34330;52.08032700;5.40923460;2024-02-21T06:34:33;12.60;97.70
6536;DHT22;34330;52.08032700;5.40923460;2024-02-21T06:37:01;12.60;97.70
6536;DHT22;34330;52.08032700;5.40923460;2024-02-21T06:39:29;12.60;97.70
6536;DHT22;34330;52.08032700;5.40923460;2024-02-21T06:41:58;12.60;97.70
6536;DHT22;34330;52.08032700;5.40923460;2024-02-21T06:44:31;12.60;97.70
6536;DHT22;34330;52.08032700;5.40923460;2024-02-21T06:47:03;12.60;97.80
6536;DHT22;34330;52.08032700;5.40923460;2024-02-21T06:49:31;12.60;97.70
6536;DHT22;34330;52.08032700;5.40923460;2024-02-21T06:51:59;12.50;97.70
6536;DHT22;34330;52.08032700;5.40923460;2024-02-21T06:54:29;12.50;97.70
6536;DHT22;34330;52.08032700;5.40923460;2024-02-21T06:56:58;12.50;97.70
6536;DHT22;34330;52.08032700;5.40923460;2024-02-21T06:59:26;12.50;97.80
6536;DHT22;34330;52.08032700;5.40923460;2024-02-21T07:01:56;12.50;97.80
6536;DHT22;34330;52.08032700;5.40923460;2024-02-21T07:04:28;12.50;97.80
6536;DHT22;34330;52.08032700;5.40923460;2024-02-21T07:07:00;12.50;97.80
6536;DHT22;34330;52.08032700;5.40923460;2024-02-21T07:09:28;12.50;97.80
6536;DHT22;34330;52.08032700;5.40923460;2024-02-21T07:11:58;12.40;97.80
6536;DHT22;34330;52.08032700;5.40923460;2024-02-21T07:14:28;12.50;97.80
6536;DHT22;34330;52.08032700;5.40923460;2024-02-21T07:16:58;12.40;97.70
6536;DHT22;34330;52.08032700;5.40923460;2024-02-21T07:19:26;12.50;97.80
6536;DHT22;34330;52.08032700;5.40923460;2024-02-21T07:21:54;12.50;97.80
6536;DHT22;34330;52.08032700;5.40923460;2024-02-21T07:24:23;12.50;97.70
6536;DHT22;34330;52.08032700;5.40923460;2024-02-21T07:26:51;12.50;97.80
6536;DHT22;34330;52.08032700;5.40923460;2024-02-21T07:29:19;12.50;97.80
6536;DHT22;34330;52.08032700;5.40923460;2024-02-21T07:31:48;12.10;97.60
6536;DHT22;34330;52.08032700;5.40923460;2024-02-21T07:34:22;12.40;97.70
6536;DHT22;34330;52.08032700;5.40923460;2024-02-21T07:36:50;12.40;97.70
6536;DHT22;34330;52.08032700;5.40923460;2024-02-21T07:39:19;12.50;98.00
6536;DHT22;34330;52.08032700;5.40923460;2024-02-21T07:41:47;12.50;98.00
6536;DHT22;34330;52.08032700;5.40923460;2024-02-21T07:44:16;12.50;97.70
6536;DHT22;34330;52.08032700;5.40923460;2024-02-21T07:46:44;12.50;97.70
6536;DHT22;34330;52.08032700;5.40923460;2024-02-21T07:49:12;12.50;97.70
6536;DHT22;34330;52.08032700;5.40923460;2024-02-21T07:51:41;12.50;97.70
6536;DHT22;34330;52.08032700;5.40923460;2024-02-21T07:54:09;12.50;97.70
6536;DHT22;34330;52.08032700;5.40923460;2024-02-21T07:56:41;12.50;97.60
6536;DHT22;34330;52.08032700;5.40923460;2024-02-21T07:59:09;12.50;97.70
6536;DHT22;34330;52.08032700;5.40923460;2024-02-21T08:01:37;12.50;97.60
6536;DHT22;34330;52.08032700;5.40923460;2024-02-21T08:04:05;12.50;97.70
6536;DHT22;34330;52.08032700;5.40923460;2024-02-21T08:06:33;12.50;97.60
6536;DHT22;34330;52.08032700;5.40923460;2024-02-21T08:09:03;12.50;97.70
6536;DHT22;34330;52.08032700;5.40923460;2024-02-21T08:11:31;12.50;97.60
6536;DHT22;34330;52.08032700;5.40923460;2024-02-21T08:13:59;12.60;97.70
6536;DHT22;34330;52.08032700;5.40923460;2024-02-21T08:16:30;12.60;97.60
6536;DHT22;34330;52.08032700;5.40923460;2024-02-21T08:18:58;12.60;97.70
6536;DHT22;34330;52.08032700;5.40923460;2024-02-21T08:21:28;12.60;97.60
6536;DHT22;34330;52.08032700;5.40923460;2024-02-21T08:23:56;12.60;97.60
6536;DHT22;34330;52.08032700;5.40923460;2024-02-21T08:26:26;12.60;97.60
6536;DHT22;34330;52.08032700;5.40923460;2024-02-21T08:28:56;12.90;97.70
6536;DHT22;34330;52.08032700;5.40923460;2024-02-21T08:31:30;12.70;97.60
6536;DHT22;34330;52.08032700;5.40923460;2024-02-21T08:33:58;12.60;97.70
6536;DHT22;34330;52.08032700;5.40923460;2024-02-21T08:36:30;12.70;97.70
6536;DHT22;34330;52.08032700;5.40923460;2024-02-21T08:38:58;12.70;97.70
6536;DHT22;34330;52.08032700;5.40923460;2024-02-21T08:41:28;12.70;97.60
6536;DHT22;34330;52.08032700;5.40923460;2024-02-21T08:44:17;12.70;97.60
6536;DHT22;34330;52.08032700;5.40923460;2024-02-21T08:46:45;12.80;97.50
6536;DHT22;34330;52.08032700;5.40923460;2024-02-21T08:49:14;12.80;97.50
6536;DHT22;34330;52.08032700;5.40923460;2024-02-21T08:51:42;12.80;97.80
6536;DHT22;34330;52.08032700;5.40923460;2024-02-21T08:54:10;12.80;97.40
6536;DHT22;34330;52.08032700;5.40923460;2024-02-21T08:56:40;12.80;97.40
6536;DHT22;34330;52.08032700;5.40923460;2024-02-21T08:59:08;12.80;97.40
6536;DHT22;34330;52.08032700;5.40923460;2024-02-21T09:01:36;12.90;97.40
6536;DHT22;34330;52.08032700;5.40923460;2024-02-21T09:04:05;12.80;97.40
6536;DHT22;34330;52.08032700;5.40923460;2024-02-21T09:06:34;12.90;97.40
6536;DHT22;34330;52.08032700;5.40923460;2024-02-21T09:09:05;12.90;97.30
6536;DHT22;34330;52.08032700;5.40923460;2024-02-21T09:11:34;12.90;97.30
6536;DHT22;34330;52.08032700;5.40923460;2024-02-21T09:14:04;12.90;97.20
6536;DHT22;34330;52.08032700;5.40923460;2024-02-21T09:16:32;12.90;97.10
6536;DHT22;34330;52.08032700;5.40923460;2024-02-21T09:19:00;12.90;97.10
6536;DHT22;34330;52.08032700;5.40923460;2024-02-21T09:21:28;12.90;97.10
6536;DHT22;34330;52.08032700;5.40923460;2024-02-21T09:23:56;13.00;97.00
6536;DHT22;34330;52.08032700;5.40923460;2024-02-21T09:26:26;13.00;97.10
6536;DHT22;34330;52.08032700;5.40923460;2024-02-21T09:28:54;13.00;97.10
6536;DHT22;34330;52.08032700;5.40923460;2024-02-21T09:31:23;13.00;97.00
6536;DHT22;34330;52.08032700;5.40923460;2024-02-21T09:33:51;13.00;96.90
6536;DHT22;34330;52.08032700;5.40923460;2024-02-21T09:36:19;13.00;96.70
6536;DHT22;34330;52.08032700;5.40923460;2024-02-21T09:38:48;13.10;96.90
6536;DHT22;34330;52.08032700;5.40923460;2024-02-21T09:41:17;13.00;97.20
6536;DHT22;34330;52.08032700;5.40923460;2024-02-21T09:43:51;13.00;96.90
6536;DHT22;34330;52.08032700;5.40923460;2024-02-21T09:46:28;13.10;96.80
6536;DHT22;34330;52.08032700;5.40923460;2024-02-21T09:49:07;13.50;96.90
6536;DHT22;34330;52.08032700;5.40923460;2024-02-21T09:51:38;13.10;96.80
6536;DHT22;34330;52.08032700;5.40923460;2024-02-21T09:54:08;13.10;96.80
6536;DHT22;34330;52.08032700;5.40923460;2024-02-21T09:56:45;13.20;96.80
6536;DHT22;34330;52.08032700;5.40923460;2024-02-21T09:59:14;13.20;96.70
6536;DHT22;34330;52.08032700;5.40923460;2024-02-21T10:01:44;13.20;96.60
6536;DHT22;34330;52.08032700;5.40923460;2024-02-21T10:04:13;13.40;96.50
6536;DHT22;34330;52.08032700;5.40923460;2024-02-21T10:06:42;13.20;96.40
6536;DHT22;34330;52.08032700;5.40923460;2024-02-21T10:09:20;13.20;96.50
6536;DHT22;34330;52.08032700;5.40923460;2024-02-21T10:11:48;13.30;96.50
6536;DHT22;34330;52.08032700;5.40923460;2024-02-21T10:14:17;13.30;96.40
6536;DHT22;34330;52.08032700;5.40923460;2024-02-21T10:16:47;13.30;96.40
6536;DHT22;34330;52.08032700;5.40923460;2024-02-21T10:19:19;13.30;96.30
6536;DHT22;34330;52.08032700;5.40923460;2024-02-21T10:22:01;13.40;96.30
6536;DHT22;34330;52.08032700;5.40923460;2024-02-21T10:24:30;13.40;96.20
6536;DHT22;34330;52.08032700;5.40923460;2024-02-21T10:27:01;13.40;96.30
6536;DHT22;34330;52.08032700;5.40923460;2024-02-21T10:29:30;13.50;96.30
6536;DHT22;34330;52.08032700;5.40923460;2024-02-21T10:32:06;13.50;96.20
6536;DHT22;34330;52.08032700;5.40923460;2024-02-21T10:34:35;13.50;96.20
6536;DHT22;34330;52.08032700;5.40923460;2024-02-21T10:37:05;13.60;96.20
6536;DHT22;34330;52.08032700;5.40923460;2024-02-21T10:39:34;13.60;96.10
6536;DHT22;34330;52.08032700;5.40923460;2024-02-21T10:42:03;13.60;96.20
6536;DHT22;34330;52.08032700;5.40923460;2024-02-21T10:44:35;13.60;96.00
6536;DHT22;34330;52.08032700;5.40923460;2024-02-21T10:47:09;13.60;95.90
6536;DHT22;34330;52.08032700;5.40923460;2024-02-21T10:49:39;13.70;96.00
6536;DHT22;34330;52.08032700;5.40923460;2024-02-21T10:52:13;13.70;96.10
6536;DHT22;34330;52.08032700;5.40923460;2024-02-21T10:54:44;13.70;95.90
6536;DHT22;34330;52.08032700;5.40923460;2024-02-21T10:57:13;13.70;96.00
6536;DHT22;34330;52.08032700;5.40923460;2024-02-21T10:59:44;13.80;96.40
6536;DHT22;34330;52.08032700;5.40923460;2024-02-21T11:02:14;13.80;96.10
6536;DHT22;34330;52.08032700;5.40923460;2024-02-21T11:04:43;13.80;95.90
6536;DHT22;34330;52.08032700;5.40923460;2024-02-21T11:07:14;13.80;96.00
6536;DHT22;34330;52.08032700;5.40923460;2024-02-21T11:09:51;13.80;95.90
6536;DHT22;34330;52.08032700;5.40923460;2024-02-21T11:12:20;13.80;95.90
6536;DHT22;34330;52.08032700;5.40923460;2024-02-21T11:14:49;13.80;96.10
6536;DHT22;34330;52.08032700;5.40923460;2024-02-21T11:17:20;13.80;95.90
6536;DHT22;34330;52.08032700;5.40923460;2024-02-21T11:19:51;13.90;95.90
6536;DHT22;34330;52.08032700;5.40923460;2024-02-21T11:22:20;14.00;95.90
6536;DHT22;34330;52.08032700;5.40923460;2024-02-21T11:24:49;13.90;95.90
6536;DHT22;34330;52.08032700;5.40923460;2024-02-21T11:27:19;13.90;95.80
6536;DHT22;34330;52.08032700;5.40923460;2024-02-21T11:29:49;13.80;95.70
6536;DHT22;34330;52.08032700;5.40923460;2024-02-21T11:32:20;13.80;95.80
6536;DHT22;34330;52.08032700;5.40923460;2024-02-21T11:34:55;13.70;95.70
6536;DHT22;34330;52.08032700;5.40923460;2024-02-21T11:37:28;13.70;95.70
6536;DHT22;34330;52.08032700;5.40923460;2024-02-21T11:39:57;13.70;95.70
6536;DHT22;34330;52.08032700;5.40923460;2024-02-21T11:42:25;13.60;95.60
6536;DHT22;34330;52.08032700;5.40923460;2024-02-21T11:44:57;13.60;95.70
6536;DHT22;34330;52.08032700;5.40923460;2024-02-21T11:47:28;13.60;95.70
6536;DHT22;34330;52.08032700;5.40923460;2024-02-21T11:49:57;13.50;95.70
6536;DHT22;34330;52.08032700;5.40923460;2024-02-21T11:52:28;13.50;95.50
6536;DHT22;34330;52.08032700;5.40923460;2024-02-21T11:54:56;13.50;95.90
6536;DHT22;34330;52.08032700;5.40923460;2024-02-21T11:57:31;13.50;95.90
6536;DHT22;34330;52.08032700;5.40923460;2024-02-21T11:59:59;13.50;95.90
6536;DHT22;34330;52.08032700;5.40923460;2024-02-21T12:02:40;13.40;96.00
6536;DHT22;34330;52.08032700;5.40923460;2024-02-21T12:05:08;13.40;96.10
6536;DHT22;34330;52.08032700;5.40923460;2024-02-21T12:07:37;13.40;96.20
6536;DHT22;34330;52.08032700;5.40923460;2024-02-21T12:10:08;13.50;96.30
6536;DHT22;34330;52.08032700;5.40923460;2024-02-21T12:12:37;13.50;96.30
6536;DHT22;34330;52.08032700;5.40923460;2024-02-21T12:15:06;13.60;96.30
6536;DHT22;34330;52.08032700;5.40923460;2024-02-21T12:17:35;13.60;96.30
6536;DHT22;34330;52.08032700;5.40923460;2024-02-21T12:20:06;13.60;96.30
6536;DHT22;34330;52.08032700;5.40923460;2024-02-21T12:22:36;13.70;96.40
6536;DHT22;34330;52.08032700;5.40923460;2024-02-21T12:25:15;13.80;96.20
6536;DHT22;34330;52.08032700;5.40923460;2024-02-21T12:27:45;13.90;95.90
6536;DHT22;34330;52.08032700;5.40923460;2024-02-21T12:30:13;13.90;95.60
6536;DHT22;34330;52.08032700;5.40923460;2024-02-21T12:32:41;13.90;95.60
6536;DHT22;34330;52.08032700;5.40923460;2024-02-21T12:35:11;14.00;95.50
6536;DHT22;34330;52.08032700;5.40923460;2024-02-21T12:37:39;14.00;95.40
6536;DHT22;34330;52.08032700;5.40923460;2024-02-21T12:40:09;14.00;95.50
6536;DHT22;34330;52.08032700;5.40923460;2024-02-21T12:42:40;14.10;95.40
6536;DHT22;34330;52.08032700;5.40923460;2024-02-21T12:45:08;14.10;95.40
6536;DHT22;34330;52.08032700;5.40923460;2024-02-21T12:47:37;14.10;95.50
6536;DHT22;34330;52.08032700;5.40923460;2024-02-21T12:50:06;14.10;95.40
6536;DHT22;34330;52.08032700;5.40923460;2024-02-21T12:52:36;14.10;95.30
6536;DHT22;34330;52.08032700;5.40923460;2024-02-21T12:55:05;14.20;95.20
6536;DHT22;34330;52.08032700;5.40923460;2024-02-21T12:57:33;14.20;95.20
6536;DHT22;34330;52.08032700;5.40923460;2024-02-21T13:00:01;14.20;95.10
6536;DHT22;34330;52.08032700;5.40923460;2024-02-21T13:02:30;14.30;95.00
6536;DHT22;34330;52.08032700;5.40923460;2024-02-21T13:04:58;14.30;95.10
6536;DHT22;34330;52.08032700;5.40923460;2024-02-21T13:07:27;14.30;95.20
6536;DHT22;34330;52.08032700;5.40923460;2024-02-21T13:09:57;14.30;95.10
6536;DHT22;34330;52.08032700;5.40923460;2024-02-21T13:12:25;14.40;94.80
6536;DHT22;34330;52.08032700;5.40923460;2024-02-21T13:14:54;14.40;95.00
6536;DHT22;34330;52.08032700;5.40923460;2024-02-21T13:17:22;14.40;95.10
6536;DHT22;34330;52.08032700;5.40923460;2024-02-21T13:19:50;14.50;95.10
6536;DHT22;34330;52.08032700;5.40923460;2024-02-21T13:22:21;14.40;94.80
6536;DHT22;34330;52.08032700;5.40923460;2024-02-21T13:24:52;14.50;94.70
6536;DHT22;34330;52.08032700;5.40923460;2024-02-21T13:27:25;14.50;94.60
6536;DHT22;34330;52.08032700;5.40923460;2024-02-21T13:29:53;14.50;94.50
6536;DHT22;34330;52.08032700;5.40923460;2024-02-21T13:32:21;14.50;94.40
6536;DHT22;34330;52.08032700;5.40923460;2024-02-21T13:34:49;14.50;94.40
6536;DHT22;34330;52.08032700;5.40923460;2024-02-21T13:37:19;14.50;94.40
6536;DHT22;34330;52.08032700;5.40923460;2024-02-21T13:39:48;14.50;94.30
6536;DHT22;34330;52.08032700;5.40923460;2024-02-21T13:42:16;14.50;94.20
6536;DHT22;34330;52.08032700;5.40923460;2024-02-21T13:44:46;14.50;94.30